Time;durP1;ratioP1;P1;durP2;ratioP2;P2;SDS_P1;SDS_P2;PMS_P1;PMS_P2;Temp;Humidity;BMP_temperature;BMP_pressure;BME280_temperature;BME280_humidity;BME280_pressure;Samples;Min_cycle;Max_cycle;Signal;HPM_P1;HPM_P2
2023/10/09 00:03:06;;;;;;;1142.00;954.42;;;13.80;99.90;;;;;;5010234;28;20462;-92
2023/10/09 00:05:45;;;;;;;1138.82;947.35;;;13.70;99.90;;;;;;4992450;28;20091;-91
2023/10/09 00:08:21;;;;;;;1094.55;937.80;;;13.70;99.90;;;;;;4990680;28;20057;-92
2023/10/09 00:10:53;;;;;;;1142.88;954.40;;;13.70;99.90;;;;;;4989365;28;20133;-92
2023/10/09 00:13:20;;;;;;;1101.13;943.13;;;13.70;99.90;;;;;;4984698;28;20185;-92
2023/10/09 00:15:53;;;;;;;1171.50;961.63;;;13.70;99.90;;;;;;4993194;28;20053;-92
2023/10/09 00:18:28;;;;;;;1139.15;961.47;;;13.60;99.90;;;;;;4993205;28;20045;-92
2023/10/09 00:20:55;;;;;;;1168.97;960.17;;;13.70;99.90;;;;;;4990331;28;20502;-92
2023/10/09 00:23:25;;;;;;;1122.00;946.00;;;13.70;99.90;;;;;;4992806;28;20053;-92
2023/10/09 00:26:08;;;;;;;1141.25;948.85;;;13.70;99.90;;;;;;4989991;28;20483;-93
2023/10/09 00:28:36;;;;;;;1156.15;951.17;;;13.70;99.90;;;;;;4990094;28;20496;-92
2023/10/09 00:31:06;;;;;;;1139.68;960.80;;;13.70;99.90;;;;;;4985314;28;20271;-92
2023/10/09 00:33:32;;;;;;;1136.60;952.60;;;13.70;99.90;;;;;;4988806;28;20188;-93
2023/10/09 00:36:10;;;;;;;1185.95;961.53;;;13.70;99.90;;;;;;4986874;28;20066;-92
2023/10/09 00:38:45;;;;;;;1175.05;959.05;;;13.70;99.90;;;;;;4992147;28;20089;-93
2023/10/09 00:41:13;;;;;;;1136.07;948.75;;;13.70;99.90;;;;;;4993050;28;20045;-93
2023/10/09 00:43:43;;;;;;;1150.32;949.85;;;13.70;99.90;;;;;;4992807;28;20045;-93
2023/10/09 00:48:47;;;;;;;1147.85;947.83;;;13.70;99.90;;;;;;4998436;28;20046;-92
2023/10/09 00:51:18;;;;;;;1100.80;937.60;;;13.70;99.90;;;;;;4991317;28;20049;-92
2023/10/09 00:53:51;;;;;;;1159.97;954.60;;;13.70;99.90;;;;;;4988880;28;20084;-93
2023/10/09 00:56:20;;;;;;;1143.65;941.35;;;13.70;99.90;;;;;;4992587;28;20063;-93
2023/10/09 00:58:55;;;;;;;1121.47;943.33;;;13.70;99.90;;;;;;4990985;28;20411;-92
2023/10/09 01:01:27;;;;;;;1084.65;932.03;;;13.70;99.90;;;;;;4989128;28;20482;-92
2023/10/09 01:03:54;;;;;;;1248.10;974.47;;;13.70;99.90;;;;;;4991709;28;20038;-93
2023/10/09 01:06:29;;;;;;;1131.43;940.47;;;13.70;99.90;;;;;;4992518;28;20489;-93
2023/10/09 01:09:07;;;;;;;1141.80;950.35;;;13.70;99.90;;;;;;4988520;28;20137;-93
2023/10/09 01:11:34;;;;;;;1160.90;954.75;;;13.70;99.90;;;;;;5019885;28;20046;-93
2023/10/09 01:14:15;;;;;;;1179.03;952.25;;;13.70;99.90;;;;;;4988360;28;20042;-93
2023/10/09 01:16:42;;;;;;;1233.65;955.88;;;13.70;99.90;;;;;;4991264;28;20540;-92
2023/10/09 01:19:23;;;;;;;1210.25;964.40;;;13.70;99.90;;;;;;4979873;28;20046;-93
2023/10/09 01:21:51;;;;;;;1190.88;965.30;;;13.70;99.90;;;;;;4987117;28;20080;-92
2023/10/09 01:24:19;;;;;;;1243.97;971.17;;;13.70;99.90;;;;;;4982131;28;20056;-93
2023/10/09 01:26:46;;;;;;;1212.18;958.33;;;13.70;99.90;;;;;;4988511;28;20046;-93
2023/10/09 01:29:14;;;;;;;1238.35;966.63;;;13.70;99.90;;;;;;4981622;28;20133;-91
2023/10/09 01:34:38;;;;;;;1190.85;953.65;;;13.70;99.90;;;;;;5002336;28;20164;-91
2023/10/09 01:37:11;;;;;;;1237.32;968.30;;;13.70;99.90;;;;;;4978637;28;20057;-92
2023/10/09 01:39:41;;;;;;;1289.22;978.53;;;13.70;99.90;;;;;;5003503;28;20390;-92
2023/10/09 01:42:09;;;;;;;1265.25;979.75;;;13.70;99.90;;;;;;4981555;28;20053;-92
2023/10/09 01:44:35;;;;;;;1301.40;987.90;;;13.70;99.90;;;;;;4993424;28;20052;-93
2023/10/09 01:47:07;;;;;;;1290.43;975.63;;;13.70;99.90;;;;;;4992100;28;20129;-92
2023/10/09 01:49:37;;;;;;;1293.20;968.63;;;13.70;99.90;;;;;;4988371;28;20061;-93
2023/10/09 01:52:09;;;;;;;1263.22;965.65;;;13.70;99.90;;;;;;4984415;28;20081;-93
2023/10/09 01:54:37;;;;;;;1267.03;974.50;;;13.70;99.90;;;;;;4992228;28;20473;-92
2023/10/09 01:57:05;;;;;;;1294.38;975.25;;;13.70;99.90;;;;;;4988606;28;20057;-92
2023/10/09 01:59:33;;;;;;;1294.63;981.42;;;13.70;99.90;;;;;;5024371;28;20041;-92
2023/10/09 02:02:00;;;;;;;1337.55;988.70;;;13.70;99.90;;;;;;4991445;28;20119;-93
2023/10/09 02:04:26;;;;;;;1325.57;979.47;;;13.70;99.90;;;;;;4988852;28;20038;-92
2023/10/09 02:06:52;;;;;;;1302.18;980.70;;;13.80;99.90;;;;;;4990441;28;20104;-92
2023/10/09 02:09:22;;;;;;;1257.22;957.13;;;13.70;99.90;;;;;;4980075;28;20038;-92
2023/10/09 02:11:47;;;;;;;1253.53;963.08;;;13.70;99.90;;;;;;4989561;28;20054;-92
2023/10/09 02:14:19;;;;;;;1275.30;988.58;;;13.70;99.90;;;;;;4979769;28;20046;-92
2023/10/09 02:17:17;;;;;;;1317.43;993.00;;;13.70;99.90;;;;;;4990778;28;20081;-92
2023/10/09 02:19:48;;;;;;;1290.30;975.80;;;13.60;99.90;;;;;;4988587;28;20041;-92
2023/10/09 02:22:14;;;;;;;1361.90;999.45;;;13.70;99.90;;;;;;4972468;28;20046;-92
2023/10/09 02:24:50;;;;;;;1246.93;971.90;;;13.70;99.90;;;;;;4985095;28;20038;-92
2023/10/09 02:30:09;;;;;;;1172.78;952.67;;;13.60;99.90;;;;;;5007186;28;20050;-92
2023/10/09 02:32:35;;;;;;;1328.57;994.83;;;13.60;99.90;;;;;;4987413;28;20133;-93
2023/10/09 02:35:10;;;;;;;1368.35;996.97;;;13.60;99.90;;;;;;4991659;28;20037;-92
2023/10/09 02:37:37;;;;;;;1314.43;984.25;;;13.60;99.90;;;;;;4990440;28;20180;-93
2023/10/09 02:40:08;;;;;;;1289.93;974.25;;;13.70;99.90;;;;;;4991552;28;20046;-92
2023/10/09 02:42:34;;;;;;;1328.50;991.17;;;13.60;99.90;;;;;;4989662;28;20498;-92
2023/10/09 02:45:03;;;;;;;1404.82;999.90;;;13.70;99.90;;;;;;4991813;28;20092;-92
2023/10/09 02:47:29;;;;;;;1291.68;975.47;;;13.60;99.90;;;;;;4988507;28;20077;-94
2023/10/09 02:50:07;;;;;;;1378.18;999.15;;;13.60;99.90;;;;;;4976892;28;20082;-92
2023/10/09 02:52:40;;;;;;;1340.60;998.80;;;13.60;99.90;;;;;;4990323;28;20129;-92
2023/10/09 02:55:13;;;;;;;1353.63;989.55;;;13.60;99.90;;;;;;4989132;28;20050;-93
2023/10/09 02:57:41;;;;;;;1464.90;999.90;;;13.60;99.90;;;;;;5004340;28;20038;-92
2023/10/09 03:00:09;;;;;;;1414.40;999.42;;;13.60;99.90;;;;;;4983477;28;20056;-92
2023/10/09 03:02:39;;;;;;;1448.88;999.90;;;13.60;99.90;;;;;;4991885;28;20060;-93
2023/10/09 03:05:11;;;;;;;1447.32;999.90;;;13.60;99.90;;;;;;4985493;28;20490;-92
2023/10/09 03:07:39;;;;;;;1390.70;990.15;;;13.60;99.90;;;;;;4989103;28;20081;-92
2023/10/09 03:10:09;;;;;;;1461.88;999.90;;;13.60;99.90;;;;;;4986745;28;20042;-93
2023/10/09 03:12:35;;;;;;;1404.00;994.65;;;13.60;99.90;;;;;;4979825;28;20129;-93
2023/10/09 03:15:02;;;;;;;1468.35;996.08;;;13.60;99.90;;;;;;4986405;28;20042;-92
2023/10/09 03:17:28;;;;;;;1364.45;983.63;;;13.70;99.90;;;;;;4991847;28;20042;-93
2023/10/09 03:19:54;;;;;;;1479.43;999.90;;;13.60;99.90;;;;;;4992319;28;20046;-93
2023/10/09 03:22:20;;;;;;;1374.00;973.35;;;13.70;99.90;;;;;;4994757;28;20464;-92
2023/10/09 03:24:46;;;;;;;1413.50;983.05;;;13.70;99.90;;;;;;4993347;28;20050;-92
2023/10/09 03:27:13;;;;;;;1422.43;984.17;;;13.70;99.90;;;;;;4982985;28;20030;-92
2023/10/09 03:29:39;;;;;;;1477.15;999.90;;;13.70;99.90;;;;;;4994235;28;20046;-93
2023/10/09 03:32:06;;;;;;;1491.13;999.90;;;13.70;99.90;;;;;;4991595;28;20391;-92
2023/10/09 03:34:32;;;;;;;1405.88;981.90;;;13.70;99.90;;;;;;4988769;28;20112;-93
2023/10/09 03:37:04;;;;;;;1380.60;983.17;;;13.80;99.90;;;;;;4993975;28;20041;-93
2023/10/09 03:39:41;;;;;;;1477.88;999.20;;;13.80;99.90;;;;;;4993131;28;20125;-92
2023/10/09 03:42:15;;;;;;;1530.95;999.90;;;13.80;99.90;;;;;;4994317;28;20042;-93
2023/10/09 03:44:41;;;;;;;1442.88;997.45;;;13.80;99.90;;;;;;4989247;28;20065;-92
2023/10/09 03:47:10;;;;;;;1395.25;994.25;;;13.90;99.90;;;;;;4986300;28;20152;-93
2023/10/09 03:49:39;;;;;;;1472.82;999.90;;;13.90;99.90;;;;;;4990116;28;20076;-91
2023/10/09 03:52:06;;;;;;;1296.97;973.35;;;14.00;99.90;;;;;;4986082;28;20084;-92
2023/10/09 03:54:34;;;;;;;1396.20;999.90;;;14.00;99.90;;;;;;4990221;28;20092;-92
2023/10/09 03:57:01;;;;;;;1290.20;973.25;;;14.10;99.90;;;;;;4986550;28;20099;-93
2023/10/09 03:59:30;;;;;;;1289.70;977.50;;;14.10;99.90;;;;;;4977761;28;20100;-92
2023/10/09 04:01:58;;;;;;;1359.68;987.05;;;14.10;99.90;;;;;;5020552;28;20529;-93
2023/10/09 04:04:24;;;;;;;1303.85;979.47;;;14.20;99.90;;;;;;4977816;28;20112;-93
2023/10/09 04:06:51;;;;;;;1281.00;977.00;;;14.20;99.90;;;;;;4990735;28;20166;-92
2023/10/09 04:11:46;;;;;;;1274.85;962.70;;;14.20;99.90;;;;;;4997852;28;20058;-93
2023/10/09 04:14:24;;;;;;;1310.57;988.33;;;14.20;99.90;;;;;;4992804;28;20557;-93
2023/10/09 04:16:51;;;;;;;1282.68;978.88;;;14.30;99.90;;;;;;4992657;28;20184;-93
2023/10/09 04:19:21;;;;;;;1383.05;999.10;;;14.30;99.90;;;;;;4993738;28;20046;-93
2023/10/09 04:21:48;;;;;;;1391.53;996.78;;;14.40;99.90;;;;;;4993586;28;20056;-93
2023/10/09 04:26:48;;;;;;;1360.28;993.90;;;14.60;99.90;;;;;;5009391;28;20060;-93
2023/10/09 04:29:23;;;;;;;1356.45;997.88;;;14.60;99.90;;;;;;5002957;28;20037;-92
2023/10/09 04:31:51;;;;;;;1249.35;968.53;;;14.70;99.90;;;;;;4987184;28;20196;-92
2023/10/09 04:34:23;;;;;;;1259.20;971.70;;;14.80;99.90;;;;;;4987322;28;20061;-93
2023/10/09 04:36:51;;;;;;;1240.88;962.28;;;14.90;99.90;;;;;;4977362;28;20046;-93
2023/10/09 04:44:58;;;;;;;1231.97;963.97;;;14.90;99.90;;;;;;4991949;28;20046;-93
2023/10/09 04:47:25;;;;;;;1199.00;942.70;;;15.00;99.90;;;;;;4984493;28;20494;-93
2023/10/09 04:52:51;;;;;;;1201.93;951.20;;;15.00;99.90;;;;;;5003329;28;20493;-92
2023/10/09 05:02:54;;;;;;;1215.70;948.05;;;15.20;99.90;;;;;;5009599;28;20135;-94
2023/10/09 05:08:21;;;;;;;1220.10;948.58;;;15.20;99.90;;;;;;5008682;28;20189;-93
2023/10/09 05:16:15;;;;;;;1209.30;955.50;;;15.30;99.90;;;;;;5000266;28;20058;-93
2023/10/09 05:18:44;;;;;;;1159.82;938.85;;;15.40;99.90;;;;;;4989156;28;20070;-93
2023/10/09 05:23:48;;;;;;;1104.13;911.90;;;15.30;99.90;;;;;;5006420;28;20061;-92
2023/10/09 05:29:18;;;;;;;1150.85;931.03;;;15.40;99.90;;;;;;4998935;28;20050;-92
2023/10/09 05:31:56;;;;;;;987.13;877.65;;;15.40;99.90;;;;;;4972781;28;20046;-93
2023/10/09 05:34:33;;;;;;;1029.53;892.70;;;15.40;99.90;;;;;;4986168;28;20119;-92
2023/10/09 05:37:17;;;;;;;1140.55;930.80;;;15.40;99.90;;;;;;4977988;28;20066;-92
2023/10/09 05:39:58;;;;;;;;;;;15.30;99.90;;;;;;4999512;28;20050;-93
2023/10/09 05:42:57;;;;;;;1130.85;940.92;;;15.40;99.90;;;;;;4982857;28;19922;-93
2023/10/09 05:48:54;;;;;;;1068.88;907.13;;;15.40;99.90;;;;;;5010009;28;20050;-93
2023/10/09 05:51:41;;;;;;;1128.30;929.17;;;15.40;99.90;;;;;;5006119;28;20049;-92
2023/10/09 05:55:10;;;;;;;1114.03;923.78;;;15.50;99.90;;;;;;5008715;28;20416;-92
2023/10/09 06:06:18;;;;;;;1028.55;894.05;;;15.50;99.90;;;;;;5008491;28;20136;-93
2023/10/09 06:12:33;;;;;;;1215.90;959.90;;;15.60;99.90;;;;;;5007923;28;20104;-93
2023/10/09 06:15:32;;;;;;;1101.75;925.63;;;15.60;99.90;;;;;;4988738;28;20042;-93
2023/10/09 06:18:34;;;;;;;1140.40;924.20;;;15.60;99.90;;;;;;5001221;28;20147;-94
2023/10/09 06:21:10;;;;;;;1164.35;933.92;;;15.90;99.90;;;;;;4992210;28;20104;-94
2023/10/09 06:24:09;;;;;;;1149.53;940.17;;;15.70;99.90;;;;;;4990342;28;20046;-93
2023/10/09 06:26:41;;;;;;;1167.65;939.95;;;15.70;99.90;;;;;;4996910;28;20046;-93
2023/10/09 06:32:16;;;;;;;1001.45;893.63;;;15.70;99.90;;;;;;5007354;28;20038;-93
2023/10/09 06:50:58;;;;;;;1001.75;889.17;;;15.80;99.90;;;;;;5575077;23;20124;-90
2023/10/09 06:54:49;;;;;;;988.28;879.95;;;15.80;99.90;;;;;;5007400;28;20045;-93
2023/10/09 07:29:58;;;;;;;1002.72;890.58;;;15.80;99.90;;;;;;4975119;28;20046;-94
2023/10/09 07:33:29;;;;;;;;;;;;;;;;;;;;;
2023/10/09 07:36:47;;;;;;;1365.72;991.58;;;15.70;99.90;;;;;;4992317;28;20586;-91
2023/10/09 09:09:24;;;;;;;1199.70;941.72;;;16.40;99.90;;;;;;4832933;29;20064;-90
2023/10/09 10:15:14;;;;;;;1054.15;921.72;;;16.80;99.90;;;;;;4718303;30;20091;-94
2023/10/09 10:25:09;;;;;;;1140.22;919.95;;;16.60;99.90;;;;;;4642184;30;20496;-93
2023/10/09 10:27:51;;;;;;;1103.80;918.50;;;16.70;99.90;;;;;;4627773;30;20501;-92
2023/10/09 10:30:24;;;;;;;1096.68;923.00;;;16.70;99.90;;;;;;4617424;30;20082;-91
2023/10/09 10:32:58;;;;;;;1056.10;893.47;;;16.70;99.90;;;;;;4651742;30;20053;-86
2023/10/09 10:35:39;;;;;;;1099.60;924.63;;;16.80;99.90;;;;;;4679288;30;20053;-87
2023/10/09 10:38:36;;;;;;;1111.07;919.67;;;16.80;99.90;;;;;;4686576;30;20515;-88
2023/10/09 10:41:11;;;;;;;1107.82;916.15;;;16.90;99.90;;;;;;4699241;30;20056;-87
2023/10/09 10:43:48;;;;;;;1017.08;882.47;;;16.90;99.90;;;;;;4708294;30;20498;-88
2023/10/09 10:46:24;;;;;;;1080.07;914.38;;;16.90;99.90;;;;;;4713397;30;20406;-88
2023/10/09 10:48:58;;;;;;;1008.90;877.83;;;16.90;99.90;;;;;;4678851;30;20060;-86
2023/10/09 10:51:37;;;;;;;1132.60;920.20;;;16.90;99.90;;;;;;4692676;30;20056;-87
2023/10/09 10:56:52;;;;;;;1074.70;900.58;;;16.90;99.90;;;;;;4692872;30;20140;-87
2023/10/09 10:59:26;;;;;;;1057.28;894.60;;;16.90;99.90;;;;;;4683883;30;20136;-88
2023/10/09 11:05:14;;;;;;;1054.30;898.42;;;16.80;99.90;;;;;;4724205;30;20048;-88
2023/10/09 11:07:24;;;;;;;1071.18;914.72;;;16.90;99.90;;;;;;4718825;30;20076;-86
2023/10/09 11:10:10;;;;;;;1024.55;890.78;;;16.90;99.90;;;;;;4693791;30;22003;-86
2023/10/09 11:12:41;;;;;;;1082.95;919.33;;;16.80;99.90;;;;;;4671960;30;20053;-87
2023/10/09 11:15:18;;;;;;;1098.45;926.70;;;16.90;99.90;;;;;;4693060;30;20683;-86
2023/10/09 11:17:45;;;;;;;1057.28;902.63;;;16.80;99.90;;;;;;4686505;30;20049;-87
2023/10/09 11:20:23;;;;;;;1020.22;891.50;;;16.80;99.90;;;;;;4688079;30;20053;-87
2023/10/09 11:25:50;;;;;;;1043.68;905.63;;;16.80;99.90;;;;;;4698485;30;20045;-86
2023/10/09 11:28:42;;;;;;;1059.88;921.92;;;16.80;99.90;;;;;;4683723;30;20053;-88
2023/10/09 11:31:12;;;;;;;1038.53;913.08;;;16.90;99.90;;;;;;4697500;30;20061;-88
2023/10/09 11:33:51;;;;;;;1054.72;913.33;;;17.00;99.90;;;;;;4699541;30;20051;-87
2023/10/09 11:36:32;;;;;;;993.67;884.78;;;17.10;99.90;;;;;;4688083;30;20063;-86
2023/10/09 11:39:13;;;;;;;1050.22;921.90;;;17.20;99.90;;;;;;4706361;30;20215;-86
2023/10/09 11:41:41;;;;;;;1021.38;892.17;;;17.40;99.90;;;;;;4698328;30;20502;-86
2023/10/09 11:44:18;;;;;;;988.15;879.33;;;17.50;99.90;;;;;;4696444;30;20053;-87
2023/10/09 11:46:58;;;;;;;1009.90;883.92;;;17.50;99.90;;;;;;4693772;30;20052;-87
2023/10/09 11:49:44;;;;;;;1043.28;892.85;;;17.60;99.90;;;;;;4699746;30;20068;-86
2023/10/09 11:54:38;;;;;;;1030.65;893.10;;;17.60;99.90;;;;;;4698504;30;20049;-86
2023/10/09 11:57:04;;;;;;;1035.32;869.97;;;17.60;99.90;;;;;;4699236;30;20154;-86
2023/10/09 11:59:37;;;;;;;1100.57;892.53;;;17.60;99.90;;;;;;4696485;30;20518;-87
2023/10/09 12:02:06;;;;;;;1102.97;901.58;;;17.60;99.90;;;;;;4715199;30;20061;-88
2023/10/09 12:04:35;;;;;;;1074.55;891.80;;;17.60;99.90;;;;;;4716480;30;20509;-88
2023/10/09 12:07:08;;;;;;;1056.75;891.03;;;17.50;99.90;;;;;;4693233;30;20049;-88
2023/10/09 12:09:37;;;;;;;1022.90;873.65;;;17.40;99.90;;;;;;4679886;30;20565;-85
2023/10/09 12:12:05;;;;;;;1110.18;909.17;;;17.30;99.90;;;;;;4701273;30;20119;-83
2023/10/09 12:14:37;;;;;;;1153.43;926.00;;;17.20;99.90;;;;;;4697714;30;20096;-86
2023/10/09 12:17:05;;;;;;;1169.60;936.00;;;17.20;99.90;;;;;;4689715;30;20064;-87
2023/10/09 12:19:36;;;;;;;1202.78;958.72;;;17.10;99.90;;;;;;4699716;30;20487;-90
2023/10/09 12:22:04;;;;;;;1082.63;897.25;;;17.00;99.90;;;;;;4697468;30;20061;-88
2023/10/09 12:24:32;;;;;;;1125.43;911.47;;;17.10;99.90;;;;;;4682070;30;20076;-87
2023/10/09 12:27:10;;;;;;;980.03;863.25;;;17.00;99.90;;;;;;4683975;30;20058;-87
2023/10/09 12:29:44;;;;;;;1124.10;920.05;;;17.00;99.90;;;;;;4679988;30;20068;-88
2023/10/09 12:32:11;;;;;;;1030.03;879.80;;;17.10;99.90;;;;;;4688595;30;20060;-87
2023/10/09 12:34:38;;;;;;;1048.40;902.75;;;17.10;99.90;;;;;;4701510;30;20066;-87
2023/10/09 12:37:04;;;;;;;1075.65;897.60;;;17.20;99.90;;;;;;4691421;30;20060;-87
2023/10/09 12:39:33;;;;;;;1104.55;913.10;;;17.30;99.90;;;;;;4691775;30;20127;-87
2023/10/09 12:42:06;;;;;;;1115.63;911.33;;;17.30;99.90;;;;;;4677472;30;20053;-88
2023/10/09 12:44:38;;;;;;;1081.05;904.90;;;17.30;99.90;;;;;;4708538;30;20128;-87
2023/10/09 12:47:06;;;;;;;1125.60;924.20;;;17.30;99.90;;;;;;4696277;30;20472;-87
2023/10/09 12:49:31;;;;;;;1159.55;928.75;;;17.40;99.90;;;;;;4684698;30;20135;-87
2023/10/09 12:52:00;;;;;;;1123.80;920.63;;;17.30;99.90;;;;;;4690170;30;20139;-87
2023/10/09 12:54:27;;;;;;;1124.18;910.38;;;17.40;99.90;;;;;;4701366;30;20048;-87
2023/10/09 12:56:54;;;;;;;1112.43;917.00;;;17.30;99.90;;;;;;4700784;30;20053;-89
2023/10/09 12:59:20;;;;;;;1128.80;912.33;;;17.40;99.90;;;;;;4699480;30;20043;-87
2023/10/09 13:01:51;;;;;;;1054.45;882.58;;;17.40;99.90;;;;;;4698228;30;20049;-87
2023/10/09 13:04:22;;;;;;;991.05;849.03;;;17.30;99.90;;;;;;4702127;30;20068;-87
2023/10/09 13:06:54;;;;;;;966.67;845.92;;;17.40;99.90;;;;;;4700008;30;20059;-87
2023/10/09 13:09:35;;;;;;;922.35;817.97;;;17.30;99.90;;;;;;4700538;30;20064;-88
2023/10/09 13:12:01;;;;;;;945.53;832.17;;;17.30;99.90;;;;;;4700500;30;20067;-88
2023/10/09 13:14:28;;;;;;;972.50;853.55;;;17.30;99.90;;;;;;4700428;30;20095;-88
2023/10/09 13:16:54;;;;;;;968.33;856.70;;;17.30;99.90;;;;;;4708646;30;20061;-89
2023/10/09 13:19:24;;;;;;;1008.10;865.03;;;17.30;99.90;;;;;;4692748;30;20041;-88
2023/10/09 13:21:50;;;;;;;1016.63;869.17;;;17.30;99.90;;;;;;4710137;30;20194;-88
2023/10/09 13:24:15;;;;;;;1010.85;866.47;;;17.30;99.90;;;;;;4699892;30;20045;-88
2023/10/09 13:26:46;;;;;;;944.78;840.55;;;17.20;99.90;;;;;;4698862;30;20056;-88
2023/10/09 13:29:12;;;;;;;969.38;850.55;;;17.10;99.90;;;;;;4691314;30;20122;-89
2023/10/09 13:31:40;;;;;;;982.83;853.70;;;17.10;99.90;;;;;;4696760;30;20045;-87
2023/10/09 13:34:09;;;;;;;955.63;841.20;;;17.10;99.90;;;;;;4706994;30;20086;-88
2023/10/09 13:36:36;;;;;;;1055.97;884.08;;;17.10;99.90;;;;;;4687248;30;20465;-88
2023/10/09 13:41:59;;;;;;;1049.07;880.28;;;17.10;99.90;;;;;;4699651;30;20057;-88
2023/10/09 13:44:29;;;;;;;1088.88;893.55;;;17.10;99.90;;;;;;4696409;30;20099;-87
2023/10/09 13:46:56;;;;;;;1065.05;886.13;;;17.10;99.90;;;;;;4703728;30;20047;-88
2023/10/09 13:49:23;;;;;;;1093.00;897.38;;;17.10;99.90;;;;;;4698127;30;20115;-88
2023/10/09 13:51:50;;;;;;;1098.65;899.80;;;17.10;99.90;;;;;;4678571;30;20060;-88
2023/10/09 13:54:22;;;;;;;1063.47;886.33;;;17.10;99.90;;;;;;4681843;30;20060;-89
2023/10/09 13:56:52;;;;;;;1048.90;881.53;;;17.10;99.90;;;;;;4693507;30;20499;-87
2023/10/09 13:59:21;;;;;;;1057.10;886.92;;;17.10;99.90;;;;;;4680776;30;20479;-87
2023/10/09 14:01:48;;;;;;;1075.30;893.85;;;17.10;99.90;;;;;;4695961;30;20520;-87
2023/10/09 14:04:18;;;;;;;1039.93;872.38;;;17.10;99.90;;;;;;4695043;30;20053;-87
2023/10/09 14:06:45;;;;;;;1011.97;879.03;;;17.00;99.90;;;;;;4676132;30;20049;-87
2023/10/09 14:09:27;;;;;;;935.92;833.75;;;17.00;99.90;;;;;;4701446;30;20107;-86
2023/10/09 14:12:05;;;;;;;925.97;825.72;;;17.00;99.90;;;;;;4700789;30;20136;-87
2023/10/09 14:14:33;;;;;;;1019.15;875.45;;;16.90;99.90;;;;;;4695713;30;20123;-87
2023/10/09 14:16:59;;;;;;;949.35;844.10;;;16.90;99.90;;;;;;4697852;30;20575;-87
2023/10/09 14:19:24;;;;;;;919.50;819.83;;;16.90;99.90;;;;;;4697114;30;20048;-87
2023/10/09 14:21:51;;;;;;;982.60;858.30;;;17.00;99.90;;;;;;4696408;30;20052;-86
2023/10/09 14:24:18;;;;;;;944.63;842.08;;;17.00;99.90;;;;;;4697613;30;20125;-87
2023/10/09 14:26:45;;;;;;;1045.15;884.72;;;17.00;99.90;;;;;;4683271;30;20478;-87
2023/10/09 14:29:16;;;;;;;962.78;856.15;;;17.10;99.90;;;;;;4696504;30;20060;-87
2023/10/09 14:31:43;;;;;;;1018.53;869.88;;;17.20;99.90;;;;;;4684079;30;20049;-88
2023/10/09 14:34:09;;;;;;;971.25;844.58;;;17.20;99.90;;;;;;4698065;30;20451;-88
2023/10/09 14:36:35;;;;;;;1036.13;868.63;;;17.20;99.90;;;;;;4708032;30;20059;-89
2023/10/09 14:39:01;;;;;;;1027.55;859.38;;;17.20;99.90;;;;;;4693428;30;20053;-88
2023/10/09 14:41:29;;;;;;;1011.58;844.20;;;17.30;99.90;;;;;;4688162;30;20059;-87
2023/10/09 14:43:54;;;;;;;1084.68;860.47;;;17.30;99.90;;;;;;4692253;30;20049;-90
2023/10/09 14:46:26;;;;;;;993.45;838.50;;;17.30;99.90;;;;;;4695041;30;20531;-88
2023/10/09 14:48:53;;;;;;;1014.58;844.78;;;17.20;99.90;;;;;;4692655;30;20057;-88
2023/10/09 14:51:26;;;;;;;971.50;857.97;;;17.20;99.90;;;;;;4689206;30;20242;-88
2023/10/09 14:54:01;;;;;;;;;;;17.20;99.90;;;;;;4679660;30;20567;-88
2023/10/09 14:56:29;;;;;;;1031.05;870.38;;;17.10;99.90;;;;;;4704608;30;20001;-87
2023/10/09 14:58:58;;;;;;;1075.82;880.25;;;17.10;99.90;;;;;;4692311;30;20089;-88
2023/10/09 15:01:25;;;;;;;1097.18;875.08;;;17.20;99.90;;;;;;4691880;30;20201;-87
2023/10/09 15:03:57;;;;;;;1085.30;868.03;;;17.10;99.90;;;;;;4699950;30;20053;-87
2023/10/09 15:06:24;;;;;;;1054.95;860.88;;;17.10;99.90;;;;;;4690879;30;20139;-88
2023/10/09 15:08:50;;;;;;;1057.13;865.30;;;17.00;99.90;;;;;;4689433;30;20079;-89
2023/10/09 15:11:16;;;;;;;1031.25;865.38;;;17.00;99.90;;;;;;4692237;30;20065;-87
2023/10/09 15:13:42;;;;;;;1053.95;874.95;;;17.00;99.90;;;;;;4704990;30;20072;-89
2023/10/09 15:16:07;;;;;;;1043.90;870.20;;;17.00;99.90;;;;;;4697556;30;20140;-88
2023/10/09 15:18:33;;;;;;;1003.65;856.78;;;16.90;99.90;;;;;;4712817;30;20049;-88
2023/10/09 15:21:00;;;;;;;1043.03;876.88;;;16.90;99.90;;;;;;4687455;30;20056;-87
2023/10/09 15:23:26;;;;;;;1064.47;883.63;;;17.00;99.90;;;;;;4691267;30;20537;-87
2023/10/09 15:25:52;;;;;;;974.83;852.95;;;17.00;99.90;;;;;;4672572;30;20890;-86
2023/10/09 15:28:21;;;;;;;999.28;848.15;;;17.00;99.90;;;;;;4705779;30;20056;-87
2023/10/09 15:30:49;;;;;;;1038.22;845.53;;;17.00;99.90;;;;;;4692240;30;20140;-86
2023/10/09 15:33:16;;;;;;;999.50;835.05;;;17.00;99.90;;;;;;4687444;30;20180;-86
2023/10/09 15:35:46;;;;;;;978.58;854.55;;;17.00;99.90;;;;;;4685155;30;20155;-86
2023/10/09 15:38:13;;;;;;;1006.10;839.92;;;16.90;99.90;;;;;;4720303;30;20537;-87
2023/10/09 15:40:43;;;;;;;1089.93;882.42;;;16.90;99.90;;;;;;4692068;30;20069;-87
2023/10/09 15:43:12;;;;;;;1099.38;865.80;;;16.90;99.90;;;;;;4697376;30;20132;-87
2023/10/09 15:45:43;;;;;;;1037.57;841.33;;;16.90;99.90;;;;;;4672340;30;20053;-88
2023/10/09 15:48:08;;;;;;;1109.18;870.78;;;16.90;99.90;;;;;;4706675;30;20056;-87
2023/10/09 15:50:34;;;;;;;1112.22;872.25;;;16.80;99.90;;;;;;4702054;30;20379;-88
2023/10/09 15:53:02;;;;;;;1086.80;872.30;;;16.70;99.90;;;;;;4684206;30;20064;-88
2023/10/09 15:55:28;;;;;;;967.13;823.28;;;16.70;99.90;;;;;;4688270;30;20156;-88
2023/10/09 15:57:54;;;;;;;1215.57;897.08;;;16.70;99.90;;;;;;4692500;30;20089;-87
2023/10/09 16:00:21;;;;;;;1055.80;852.13;;;16.70;99.90;;;;;;4699583;30;20124;-88
2023/10/09 16:02:48;;;;;;;1036.20;858.50;;;16.60;99.90;;;;;;4713867;30;20052;-91
2023/10/09 16:05:16;;;;;;;1115.38;878.97;;;16.60;99.90;;;;;;4698762;30;20122;-88
2023/10/09 16:07:42;;;;;;;1096.63;863.97;;;16.60;99.90;;;;;;4691821;30;20056;-88
2023/10/09 16:10:10;;;;;;;1040.70;835.47;;;16.60;99.90;;;;;;4693769;30;20049;-86
2023/10/09 16:12:38;;;;;;;999.53;844.15;;;16.60;99.90;;;;;;4687286;30;20510;-88
2023/10/09 16:15:05;;;;;;;970.95;845.67;;;16.50;99.90;;;;;;4690325;30;20057;-88
2023/10/09 16:17:33;;;;;;;1049.07;872.35;;;16.50;99.90;;;;;;4694836;30;20048;-88
2023/10/09 16:20:00;;;;;;;976.92;848.78;;;16.60;99.90;;;;;;4690397;30;20139;-89
2023/10/09 16:22:28;;;;;;;1091.28;870.20;;;16.50;99.90;;;;;;4708571;30;20242;-86
2023/10/09 16:24:59;;;;;;;1089.13;870.35;;;16.50;99.90;;;;;;4682984;30;20124;-87
2023/10/09 16:27:27;;;;;;;1129.95;876.95;;;16.50;99.90;;;;;;4681511;30;20054;-86
2023/10/09 16:29:53;;;;;;;1062.95;856.63;;;16.40;99.90;;;;;;4708318;30;20099;-87
2023/10/09 16:32:21;;;;;;;1130.40;875.53;;;16.40;99.90;;;;;;4691746;30;20056;-87
2023/10/09 16:34:50;;;;;;;1249.97;924.50;;;16.40;99.90;;;;;;4693199;30;20167;-86
2023/10/09 16:37:22;;;;;;;1037.70;847.05;;;16.40;99.90;;;;;;4700954;30;20471;-87
2023/10/09 16:39:48;;;;;;;1175.93;896.80;;;16.40;99.90;;;;;;4702874;30;20133;-87
2023/10/09 16:42:14;;;;;;;1268.10;924.67;;;16.40;99.90;;;;;;4683825;30;20068;-87
2023/10/09 16:44:40;;;;;;;1240.30;918.70;;;16.30;99.90;;;;;;4694595;30;20049;-87
2023/10/09 16:47:06;;;;;;;1238.00;919.47;;;16.30;99.90;;;;;;4698998;30;20056;-87
2023/10/09 16:49:32;;;;;;;1136.75;909.20;;;16.30;99.90;;;;;;4698238;30;20055;-87
2023/10/09 16:51:58;;;;;;;968.55;840.35;;;16.30;99.90;;;;;;4697407;30;20468;-87
2023/10/09 16:54:26;;;;;;;1135.18;906.05;;;16.30;99.90;;;;;;4695451;30;20114;-87
2023/10/09 16:56:55;;;;;;;967.65;836.35;;;16.30;99.90;;;;;;4700079;30;20092;-87
2023/10/09 16:59:22;;;;;;;1182.28;921.75;;;16.20;99.90;;;;;;4703317;30;20056;-88
2023/10/09 17:01:48;;;;;;;950.75;837.42;;;16.20;99.90;;;;;;4698562;30;20081;-88
2023/10/09 17:04:23;;;;;;;1056.78;880.85;;;16.20;99.90;;;;;;4698239;30;20053;-87
2023/10/09 17:06:51;;;;;;;1132.78;896.13;;;16.20;99.90;;;;;;4677301;30;20057;-87
2023/10/09 17:09:20;;;;;;;1144.63;913.38;;;16.20;99.90;;;;;;4689446;30;20064;-87